sensor_id;sensor_type;location;lat;lon;timestamp;pressure;altitude;pressure_sealevel;temperature;humidity
54361;BME280;40258;53.936;27.540;2022-09-24T00:01:27;98989.66;;;7.73;100.00
54361;BME280;40258;53.936;27.540;2022-09-24T00:03:58;98985.72;;;7.79;100.00
54361;BME280;40258;53.936;27.540;2022-09-24T00:06:28;99000.22;;;7.83;100.00
54361;BME280;40258;53.936;27.540;2022-09-24T00:08:57;98982.41;;;7.82;100.00
54361;BME280;40258;53.936;27.540;2022-09-24T00:11:28;98989.41;;;7.83;100.00
54361;BME280;40258;53.936;27.540;2022-09-24T00:13:57;98987.22;;;7.85;100.00
54361;BME280;40258;53.936;27.540;2022-09-24T00:16:29;98985.13;;;7.82;100.00
54361;BME280;40258;53.936;27.540;2022-09-24T00:19:02;98980.22;;;7.84;100.00
54361;BME280;40258;53.936;27.540;2022-09-24T00:21:33;98981.69;;;7.90;100.00
54361;BME280;40258;53.936;27.540;2022-09-24T00:24:05;98981.06;;;7.94;100.00
54361;BME280;40258;53.936;27.540;2022-09-24T00:26:36;98979.59;;;7.87;100.00
54361;BME280;40258;53.936;27.540;2022-09-24T00:29:17;98972.41;;;7.83;100.00
54361;BME280;40258;53.936;27.540;2022-09-24T00:31:46;98967.00;;;7.83;100.00
54361;BME280;40258;53.936;27.540;2022-09-24T00:34:15;98971.63;;;7.82;100.00
54361;BME280;40258;53.936;27.540;2022-09-24T00:36:44;98962.09;;;7.85;100.00
54361;BME280;40258;53.936;27.540;2022-09-24T00:39:13;98975.28;;;7.86;100.00
54361;BME280;40258;53.936;27.540;2022-09-24T00:41:44;98969.56;;;7.88;100.00
54361;BME280;40258;53.936;27.540;2022-09-24T00:44:48;98973.66;;;7.63;100.00
54361;BME280;40258;53.936;27.540;2022-09-24T00:47:31;98971.31;;;7.47;100.00
54361;BME280;40258;53.936;27.540;2022-09-24T00:50:17;98969.31;;;7.39;100.00
54361;BME280;40258;53.936;27.540;2022-09-24T00:52:50;98967.50;;;7.48;100.00
54361;BME280;40258;53.936;27.540;2022-09-24T00:55:21;98964.19;;;7.51;100.00
54361;BME280;40258;53.936;27.540;2022-09-24T00:57:56;98961.28;;;7.48;100.00
54361;BME280;40258;53.936;27.540;2022-09-24T01:00:26;98951.53;;;7.38;100.00
54361;BME280;40258;53.936;27.540;2022-09-24T01:02:58;98948.84;;;7.24;100.00
54361;BME280;40258;53.936;27.540;2022-09-24T01:05:28;98951.25;;;7.26;100.00
54361;BME280;40258;53.936;27.540;2022-09-24T01:07:57;98942.16;;;7.35;100.00
54361;BME280;40258;53.936;27.540;2022-09-24T01:10:39;98953.41;;;7.51;100.00
54361;BME280;40258;53.936;27.540;2022-09-24T01:13:34;98946.00;;;7.43;100.00
54361;BME280;40258;53.936;27.540;2022-09-24T01:16:13;98948.94;;;7.33;100.00
54361;BME280;40258;53.936;27.540;2022-09-24T01:18:53;98948.34;;;7.36;100.00
54361;BME280;40258;53.936;27.540;2022-09-24T01:21:31;98951.31;;;7.48;100.00
54361;BME280;40258;53.936;27.540;2022-09-24T01:27:18;98945.91;;;7.48;100.00
54361;BME280;40258;53.936;27.540;2022-09-24T01:30:09;98944.53;;;7.37;100.00
54361;BME280;40258;53.936;27.540;2022-09-24T01:32:40;98936.19;;;7.47;100.00
54361;BME280;40258;53.936;27.540;2022-09-24T01:35:16;98936.22;;;7.33;100.00
54361;BME280;40258;53.936;27.540;2022-09-24T01:37:53;98943.34;;;7.29;100.00
54361;BME280;40258;53.936;27.540;2022-09-24T01:40:24;98937.69;;;7.17;100.00
54361;BME280;40258;53.936;27.540;2022-09-24T01:42:56;98944.16;;;7.30;100.00
54361;BME280;40258;53.936;27.540;2022-09-24T01:45:29;98941.31;;;7.35;100.00
54361;BME280;40258;53.936;27.540;2022-09-24T01:47:59;98936.53;;;7.32;100.00
54361;BME280;40258;53.936;27.540;2022-09-24T01:50:33;98941.25;;;7.26;100.00
54361;BME280;40258;53.936;27.540;2022-09-24T01:53:06;98946.34;;;7.28;100.00
54361;BME280;40258;53.936;27.540;2022-09-24T01:55:44;98948.84;;;7.24;100.00
54361;BME280;40258;53.936;27.540;2022-09-24T01:58:20;98947.75;;;7.25;100.00
54361;BME280;40258;53.936;27.540;2022-09-24T02:01:00;98935.31;;;7.38;100.00
54361;BME280;40258;53.936;27.540;2022-09-24T02:03:35;98948.03;;;7.37;100.00
54361;BME280;40258;53.936;27.540;2022-09-24T02:06:12;98944.22;;;7.38;100.00
54361;BME280;40258;53.936;27.540;2022-09-24T02:08:45;98933.50;;;7.47;100.00
54361;BME280;40258;53.936;27.540;2022-09-24T02:11:16;98933.38;;;7.52;100.00
54361;BME280;40258;53.936;27.540;2022-09-24T02:13:52;98940.41;;;7.40;100.00
54361;BME280;40258;53.936;27.540;2022-09-24T02:16:28;98939.25;;;7.32;100.00
54361;BME280;40258;53.936;27.540;2022-09-24T02:19:02;98944.16;;;7.30;100.00
54361;BME280;40258;53.936;27.540;2022-09-24T02:21:33;98938.75;;;7.30;100.00
54361;BME280;40258;53.936;27.540;2022-09-24T02:24:06;98933.97;;;7.27;100.00
54361;BME280;40258;53.936;27.540;2022-09-24T02:26:36;98940.34;;;7.31;100.00
54361;BME280;40258;53.936;27.540;2022-09-24T02:29:05;98932.75;;;7.33;100.00
54361;BME280;40258;53.936;27.540;2022-09-24T02:31:38;98926.72;;;7.50;100.00
54361;BME280;40258;53.936;27.540;2022-09-24T02:34:13;98928.28;;;7.51;100.00
54361;BME280;40258;53.936;27.540;2022-09-24T02:36:54;98930.06;;;7.55;100.00
54361;BME280;40258;53.936;27.540;2022-09-24T02:39:23;98923.09;;;7.54;100.00
54361;BME280;40258;53.936;27.540;2022-09-24T02:41:52;98930.06;;;7.55;100.00
54361;BME280;40258;53.936;27.540;2022-09-24T02:44:21;98936.06;;;7.52;100.00
54361;BME280;40258;53.936;27.540;2022-09-24T02:46:51;98934.22;;;7.39;100.00
54361;BME280;40258;53.936;27.540;2022-09-24T02:49:20;98936.13;;;7.38;100.00
54361;BME280;40258;53.936;27.540;2022-09-24T02:51:49;98929.72;;;7.48;100.00
54361;BME280;40258;53.936;27.540;2022-09-24T02:54:17;98931.91;;;7.46;100.00
54361;BME280;40258;53.936;27.540;2022-09-24T02:56:46;98930.41;;;7.40;100.00
54361;BME280;40258;53.936;27.540;2022-09-24T02:59:14;98927.97;;;7.52;100.00
54361;BME280;40258;53.936;27.540;2022-09-24T03:01:43;98925.88;;;7.49;100.00
54361;BME280;40258;53.936;27.540;2022-09-24T03:04:14;98924.66;;;7.55;100.00
54361;BME280;40258;53.936;27.540;2022-09-24T03:06:42;98928.50;;;7.54;100.00
54361;BME280;40258;53.936;27.540;2022-09-24T03:09:11;98928.50;;;7.54;100.00
54361;BME280;40258;53.936;27.540;2022-09-24T03:11:40;98934.38;;;7.56;100.00
54361;BME280;40258;53.936;27.540;2022-09-24T03:14:08;98931.38;;;7.58;100.00
54361;BME280;40258;53.936;27.540;2022-09-24T03:16:37;98925.88;;;7.49;100.00
54361;BME280;40258;53.936;27.540;2022-09-24T03:19:06;98929.72;;;7.48;100.00
54361;BME280;40258;53.936;27.540;2022-09-24T03:21:36;98939.63;;;7.39;100.00
54361;BME280;40258;53.936;27.540;2022-09-24T03:24:04;98932.81;;;7.42;100.00
54361;BME280;40258;53.936;27.540;2022-09-24T03:26:33;98936.34;;;7.28;100.00
54361;BME280;40258;53.936;27.540;2022-09-24T03:29:02;98924.03;;;7.36;100.00
54361;BME280;40258;53.936;27.540;2022-09-24T03:31:30;98935.31;;;7.38;100.00
54361;BME280;40258;53.936;27.540;2022-09-24T03:33:58;98925.28;;;7.52;100.00
54361;BME280;40258;53.936;27.540;2022-09-24T03:36:26;98930.06;;;7.55;100.00
54361;BME280;40258;53.936;27.540;2022-09-24T03:38:56;98929.47;;;7.59;100.00
54361;BME280;40258;53.936;27.540;2022-09-24T03:41:26;98924.75;;;7.64;100.00
54361;BME280;40258;53.936;27.540;2022-09-24T03:43:55;98929.66;;;7.62;100.00
54361;BME280;40258;53.936;27.540;2022-09-24T03:46:24;98930.06;;;7.55;100.00
54361;BME280;40258;53.936;27.540;2022-09-24T03:48:54;98922.47;;;7.58;100.00
54361;BME280;40258;53.936;27.540;2022-09-24T03:51:26;98924.06;;;7.59;100.00
54361;BME280;40258;53.936;27.540;2022-09-24T03:53:56;98932.06;;;7.64;100.00
54361;BME280;40258;53.936;27.540;2022-09-24T03:56:24;98929.59;;;7.53;100.00
54361;BME280;40258;53.936;27.540;2022-09-24T03:58:53;98924.66;;;7.55;100.00
54361;BME280;40258;53.936;27.540;2022-09-24T04:01:22;98931.03;;;7.37;100.00
54361;BME280;40258;53.936;27.540;2022-09-24T04:03:51;98932.72;;;7.47;100.00
54361;BME280;40258;53.936;27.540;2022-09-24T04:06:20;98943.56;;;7.55;100.00
54361;BME280;40258;53.936;27.540;2022-09-24T04:08:49;98940.09;;;7.55;100.00
54361;BME280;40258;53.936;27.540;2022-09-24T04:11:18;98932.75;;;7.33;100.00
54361;BME280;40258;53.936;27.540;2022-09-24T04:13:47;98945.50;;;7.41;100.00
54361;BME280;40258;53.936;27.540;2022-09-24T04:16:16;98931.72;;;7.43;100.00
54361;BME280;40258;53.936;27.540;2022-09-24T04:18:44;98928.72;;;7.44;100.00
54361;BME280;40258;53.936;27.540;2022-09-24T04:21:13;98934.09;;;7.44;100.00
54361;BME280;40258;53.936;27.540;2022-09-24T04:23:42;98933.09;;;7.40;100.00
54361;BME280;40258;53.936;27.540;2022-09-24T04:26:10;98931.91;;;7.46;100.00
54361;BME280;40258;53.936;27.540;2022-09-24T04:28:40;98924.31;;;7.48;100.00
54361;BME280;40258;53.936;27.540;2022-09-24T04:31:09;98920.00;;;7.47;100.00
54361;BME280;40258;53.936;27.540;2022-09-24T04:33:37;98920.09;;;7.56;100.00
54361;BME280;40258;53.936;27.540;2022-09-24T04:36:06;98923.22;;;7.72;100.00
54361;BME280;40258;53.936;27.540;2022-09-24T04:38:35;98926.00;;;7.81;100.00
54361;BME280;40258;53.936;27.540;2022-09-24T04:41:05;98929.88;;;7.88;100.00
54361;BME280;40258;53.936;27.540;2022-09-24T04:43:34;98925.56;;;7.87;100.00
54361;BME280;40258;53.936;27.540;2022-09-24T04:46:05;98928.41;;;7.82;100.00
54361;BME280;40258;53.936;27.540;2022-09-24T04:48:35;98926.34;;;7.88;100.00
54361;BME280;40258;53.936;27.540;2022-09-24T04:51:05;98934.16;;;7.89;100.00
54361;BME280;40258;53.936;27.540;2022-09-24T04:53:34;98931.06;;;8.05;100.00
54361;BME280;40258;53.936;27.540;2022-09-24T04:56:04;98929.47;;;8.04;100.00
54361;BME280;40258;53.936;27.540;2022-09-24T04:58:37;98922.34;;;8.08;100.00
54361;BME280;40258;53.936;27.540;2022-09-24T05:01:07;98928.06;;;8.06;100.00
54361;BME280;40258;53.936;27.540;2022-09-24T05:03:36;98923.72;;;7.97;100.00
54361;BME280;40258;53.936;27.540;2022-09-24T05:06:05;98927.28;;;8.06;100.00
54361;BME280;40258;53.936;27.540;2022-09-24T05:08:33;98923.75;;;8.05;100.00
54361;BME280;40258;53.936;27.540;2022-09-24T05:11:02;98923.19;;;8.17;100.00
54361;BME280;40258;53.936;27.540;2022-09-24T05:13:31;98921.34;;;8.26;100.00
54361;BME280;40258;53.936;27.540;2022-09-24T05:16:01;98936.47;;;8.27;100.00
54361;BME280;40258;53.936;27.540;2022-09-24T05:18:32;98923.56;;;8.24;100.00
54361;BME280;40258;53.936;27.540;2022-09-24T05:21:00;98936.19;;;8.38;100.00
54361;BME280;40258;53.936;27.540;2022-09-24T05:23:29;98933.00;;;8.36;100.00
54361;BME280;40258;53.936;27.540;2022-09-24T05:25:57;98940.13;;;8.32;100.00
54361;BME280;40258;53.936;27.540;2022-09-24T05:28:43;98932.84;;;8.09;100.00
54361;BME280;40258;53.936;27.540;2022-09-24T05:31:12;98925.44;;;8.15;100.00
54361;BME280;40258;53.936;27.540;2022-09-24T05:33:42;98928.13;;;8.15;100.00
54361;BME280;40258;53.936;27.540;2022-09-24T05:36:11;98934.72;;;8.32;100.00
54361;BME280;40258;53.936;27.540;2022-09-24T05:38:39;98927.44;;;8.41;100.00
54361;BME280;40258;53.936;27.540;2022-09-24T05:41:07;98926.97;;;8.39;100.00
54361;BME280;40258;53.936;27.540;2022-09-24T05:43:38;98935.84;;;8.31;100.00
54361;BME280;40258;53.936;27.540;2022-09-24T05:46:07;98938.53;;;8.53;100.00
54361;BME280;40258;53.936;27.540;2022-09-24T05:48:35;98929.16;;;8.59;100.00
54361;BME280;40258;53.936;27.540;2022-09-24T05:51:05;98934.00;;;8.80;100.00
54361;BME280;40258;53.936;27.540;2022-09-24T05:53:34;98933.09;;;8.93;100.00
54361;BME280;40258;53.936;27.540;2022-09-24T05:56:03;98940.91;;;8.95;100.00
54361;BME280;40258;53.936;27.540;2022-09-24T05:58:32;98940.72;;;8.82;100.00
54361;BME280;40258;53.936;27.540;2022-09-24T06:01:00;98949.75;;;8.78;100.00
54361;BME280;40258;53.936;27.540;2022-09-24T06:03:29;98950.03;;;8.68;100.00
54361;BME280;40258;53.936;27.540;2022-09-24T06:05:57;98949.19;;;8.58;100.00
54361;BME280;40258;53.936;27.540;2022-09-24T06:08:30;98941.59;;;8.60;100.00
54361;BME280;40258;53.936;27.540;2022-09-24T06:10:59;98948.41;;;8.58;100.00
54361;BME280;40258;53.936;27.540;2022-09-24T06:13:28;98949.34;;;8.53;100.00
54361;BME280;40258;53.936;27.540;2022-09-24T06:16:00;98952.19;;;8.48;100.00
54361;BME280;40258;53.936;27.540;2022-09-24T06:18:29;98951.25;;;8.53;100.00
54361;BME280;40258;53.936;27.540;2022-09-24T06:21:00;98954.69;;;8.44;100.00
54361;BME280;40258;53.936;27.540;2022-09-24T06:23:31;98952.66;;;8.50;100.00
54361;BME280;40258;53.936;27.540;2022-09-24T06:26:00;98955.09;;;8.60;100.00
54361;BME280;40258;53.936;27.540;2022-09-24T06:28:29;98959.16;;;8.49;100.00
54361;BME280;40258;53.936;27.540;2022-09-24T06:30:59;98952.41;;;8.60;100.00
54361;BME280;40258;53.936;27.540;2022-09-24T06:33:28;98958.03;;;8.73;100.00
54361;BME280;40258;53.936;27.540;2022-09-24T06:36:01;98957.22;;;8.72;100.00
54361;BME280;40258;53.936;27.540;2022-09-24T06:38:32;98954.97;;;8.66;100.00
54361;BME280;40258;53.936;27.540;2022-09-24T06:41:03;98956.97;;;8.51;100.00
54361;BME280;40258;53.936;27.540;2022-09-24T06:43:34;98958.44;;;8.57;100.00
54361;BME280;40258;53.936;27.540;2022-09-24T06:46:03;98965.22;;;8.86;100.00
54361;BME280;40258;53.936;27.540;2022-09-24T06:48:32;98966.97;;;8.82;100.00
54361;BME280;40258;53.936;27.540;2022-09-24T06:51:04;98963.66;;;8.85;100.00
54361;BME280;40258;53.936;27.540;2022-09-24T06:53:34;98967.59;;;8.79;100.00
54361;BME280;40258;53.936;27.540;2022-09-24T06:56:02;98979.72;;;8.90;100.00
54361;BME280;40258;53.936;27.540;2022-09-24T06:58:31;98974.22;;;9.13;100.00
54361;BME280;40258;53.936;27.540;2022-09-24T07:01:03;98975.72;;;9.37;100.00
54361;BME280;40258;53.936;27.540;2022-09-24T07:03:35;98970.00;;;9.56;100.00
54361;BME280;40258;53.936;27.540;2022-09-24T07:06:06;98976.53;;;9.46;100.00
54361;BME280;40258;53.936;27.540;2022-09-24T07:08:36;98971.44;;;9.70;100.00
54361;BME280;40258;53.936;27.540;2022-09-24T07:11:05;98967.78;;;9.66;100.00
54361;BME280;40258;53.936;27.540;2022-09-24T07:13:33;98976.38;;;9.86;100.00
54361;BME280;40258;53.936;27.540;2022-09-24T07:16:02;98977.81;;;10.27;100.00
54361;BME280;40258;53.936;27.540;2022-09-24T07:18:30;98974.25;;;10.53;100.00
54361;BME280;40258;53.936;27.540;2022-09-24T07:20:59;98973.50;;;10.35;100.00
54361;BME280;40258;53.936;27.540;2022-09-24T07:23:27;98972.06;;;10.29;100.00
54361;BME280;40258;53.936;27.540;2022-09-24T07:25:57;98980.50;;;10.10;100.00
54361;BME280;40258;53.936;27.540;2022-09-24T07:28:26;98973.47;;;10.26;100.00
54361;BME280;40258;53.936;27.540;2022-09-24T07:30:58;98971.56;;;10.44;100.00
54361;BME280;40258;53.936;27.540;2022-09-24T07:33:29;98979.06;;;10.38;100.00
54361;BME280;40258;53.936;27.540;2022-09-24T07:35:58;98974.59;;;10.25;100.00
54361;BME280;40258;53.936;27.540;2022-09-24T07:38:26;98974.91;;;10.32;100.00
54361;BME280;40258;53.936;27.540;2022-09-24T07:40:57;98970.28;;;10.41;100.00
54361;BME280;40258;53.936;27.540;2022-09-24T07:43:26;98974.84;;;10.67;100.00
54361;BME280;40258;53.936;27.540;2022-09-24T07:45:55;98985.47;;;10.42;100.00
54361;BME280;40258;53.936;27.540;2022-09-24T07:48:24;98972.13;;;10.67;100.00
54361;BME280;40258;53.936;27.540;2022-09-24T07:50:53;98975.06;;;10.92;100.00
54361;BME280;40258;53.936;27.540;2022-09-24T07:53:21;98980.31;;;10.50;100.00
54361;BME280;40258;53.936;27.540;2022-09-24T07:55:50;98977.09;;;10.65;100.00
54361;BME280;40258;53.936;27.540;2022-09-24T07:58:20;98971.69;;;10.95;100.00
54361;BME280;40258;53.936;27.540;2022-09-24T08:00:48;98982.78;;;11.11;100.00
54361;BME280;40258;53.936;27.540;2022-09-24T08:03:17;98980.50;;;11.22;100.00
54361;BME280;40258;53.936;27.540;2022-09-24T08:05:46;98990.25;;;11.23;100.00
54361;BME280;40258;53.936;27.540;2022-09-24T08:08:14;98995.63;;;11.02;100.00
54361;BME280;40258;53.936;27.540;2022-09-24T08:10:43;98994.16;;;11.04;100.00
54361;BME280;40258;53.936;27.540;2022-09-24T08:13:11;98989.13;;;10.94;100.00
54361;BME280;40258;53.936;27.540;2022-09-24T08:15:41;98998.28;;;11.10;100.00
54361;BME280;40258;53.936;27.540;2022-09-24T08:18:11;98994.59;;;11.15;100.00
54361;BME280;40258;53.936;27.540;2022-09-24T08:20:39;98986.44;;;11.45;100.00
54361;BME280;40258;53.936;27.540;2022-09-24T08:23:09;98996.03;;;11.12;100.00
54361;BME280;40258;53.936;27.540;2022-09-24T08:25:38;98991.84;;;11.24;100.00
54361;BME280;40258;53.936;27.540;2022-09-24T08:28:08;99003.56;;;11.45;100.00
54361;BME280;40258;53.936;27.540;2022-09-24T08:30:38;98998.44;;;11.14;100.00
54361;BME280;40258;53.936;27.540;2022-09-24T08:33:08;99002.03;;;10.97;100.00
54361;BME280;40258;53.936;27.540;2022-09-24T08:35:37;99008.88;;;11.03;100.00
54361;BME280;40258;53.936;27.540;2022-09-24T08:38:07;98997.97;;;11.42;100.00
54361;BME280;40258;53.936;27.540;2022-09-24T08:40:41;99007.91;;;11.38;100.00
54361;BME280;40258;53.936;27.540;2022-09-24T08:43:31;98996.19;;;11.67;100.00
54361;BME280;40258;53.936;27.540;2022-09-24T08:46:11;99005.13;;;11.46;100.00
54361;BME280;40258;53.936;27.540;2022-09-24T08:48:57;99007.19;;;11.20;100.00
54361;BME280;40258;53.936;27.540;2022-09-24T08:51:32;98999.56;;;11.13;100.00
54361;BME280;40258;53.936;27.540;2022-09-24T08:54:06;98992.75;;;11.28;100.00
54361;BME280;40258;53.936;27.540;2022-09-24T08:56:39;98992.03;;;11.48;100.00
54361;BME280;40258;53.936;27.540;2022-09-24T08:59:23;98997.84;;;11.38;99.40
54361;BME280;40258;53.936;27.540;2022-09-24T09:02:04;98998.66;;;11.81;97.98
54361;BME280;40258;53.936;27.540;2022-09-24T09:04:53;98987.50;;;11.52;98.02
54361;BME280;40258;53.936;27.540;2022-09-24T09:07:30;99000.22;;;11.61;98.39
54361;BME280;40258;53.936;27.540;2022-09-24T09:10:06;98991.97;;;11.78;98.96
54361;BME280;40258;53.936;27.540;2022-09-24T09:12:41;98988.31;;;12.16;97.18
54361;BME280;40258;53.936;27.540;2022-09-24T09:15:17;98986.78;;;11.85;100.00
54361;BME280;40258;53.936;27.540;2022-09-24T09:17:49;98986.97;;;12.22;99.42
54361;BME280;40258;53.936;27.540;2022-09-24T09:20:25;98981.28;;;12.15;98.40
54361;BME280;40258;53.936;27.540;2022-09-24T09:22:59;98985.00;;;12.44;97.23
54361;BME280;40258;53.936;27.540;2022-09-24T09:25:34;98997.25;;;12.50;95.85
54361;BME280;40258;53.936;27.540;2022-09-24T09:28:11;98989.56;;;12.52;92.19
54361;BME280;40258;53.936;27.540;2022-09-24T09:30:58;98984.63;;;12.91;90.43
54361;BME280;40258;53.936;27.540;2022-09-24T09:33:50;98978.28;;;12.87;89.61
54361;BME280;40258;53.936;27.540;2022-09-24T09:36:40;98987.00;;;12.35;92.74
54361;BME280;40258;53.936;27.540;2022-09-24T09:39:28;98988.28;;;12.37;90.92
54361;BME280;40258;53.936;27.540;2022-09-24T09:42:23;98987.19;;;12.17;88.81
54361;BME280;40258;53.936;27.540;2022-09-24T09:44:53;98988.78;;;12.64;89.46
54361;BME280;40258;53.936;27.540;2022-09-24T09:47:35;98997.25;;;12.50;90.02
54361;BME280;40258;53.936;27.540;2022-09-24T09:50:15;98984.47;;;12.63;89.29
54361;BME280;40258;53.936;27.540;2022-09-24T09:52:48;98987.81;;;12.93;87.41
54361;BME280;40258;53.936;27.540;2022-09-24T09:55:25;98978.94;;;12.84;86.20
54361;BME280;40258;53.936;27.540;2022-09-24T09:58:08;98983.25;;;12.85;84.11
54361;BME280;40258;53.936;27.540;2022-09-24T10:00:37;98990.03;;;12.67;86.39
54361;BME280;40258;53.936;27.540;2022-09-24T10:03:18;98990.66;;;12.97;84.76
54361;BME280;40258;53.936;27.540;2022-09-24T10:05:53;98981.19;;;12.82;84.95
54361;BME280;40258;53.936;27.540;2022-09-24T10:08:25;98982.09;;;12.74;85.80
54361;BME280;40258;53.936;27.540;2022-09-24T10:10:54;98984.03;;;12.73;87.15
54361;BME280;40258;53.936;27.540;2022-09-24T10:13:24;98980.97;;;12.75;88.88
54361;BME280;40258;53.936;27.540;2022-09-24T10:15:55;98977.78;;;12.73;87.83
54361;BME280;40258;53.936;27.540;2022-09-24T10:18:30;98977.09;;;12.76;86.40
54361;BME280;40258;53.936;27.540;2022-09-24T10:21:03;98979.63;;;12.69;83.85
54361;BME280;40258;53.936;27.540;2022-09-24T10:23:38;98981.47;;;13.14;82.04
54361;BME280;40258;53.936;27.540;2022-09-24T10:26:08;98987.09;;;13.21;83.69
54361;BME280;40258;53.936;27.540;2022-09-24T10:28:45;98990.06;;;12.91;83.19
54361;BME280;40258;53.936;27.540;2022-09-24T10:31:37;98978.63;;;12.86;85.94
54361;BME280;40258;53.936;27.540;2022-09-24T10:34:20;98990.06;;;13.28;81.05
54361;BME280;40258;53.936;27.540;2022-09-24T10:36:53;98995.63;;;13.20;77.58
54361;BME280;40258;53.936;27.540;2022-09-24T10:39:27;98992.34;;;13.14;78.00
54361;BME280;40258;53.936;27.540;2022-09-24T10:41:57;98987.59;;;13.11;77.59
54361;BME280;40258;53.936;27.540;2022-09-24T10:44:33;98983.50;;;12.34;80.30
54361;BME280;40258;53.936;27.540;2022-09-24T10:47:25;98984.59;;;12.67;78.50
54361;BME280;40258;53.936;27.540;2022-09-24T10:50:19;98983.81;;;12.79;75.25
54361;BME280;40258;53.936;27.540;2022-09-24T10:52:55;98976.91;;;12.93;77.41
54361;BME280;40258;53.936;27.540;2022-09-24T10:55:39;98983.22;;;13.72;76.40
54361;BME280;40258;53.936;27.540;2022-09-24T10:58:39;98977.25;;;13.82;76.00
54361;BME280;40258;53.936;27.540;2022-09-24T11:01:20;98990.03;;;13.78;72.87
54361;BME280;40258;53.936;27.540;2022-09-24T11:07:07;98975.78;;;13.07;77.04
54361;BME280;40258;53.936;27.540;2022-09-24T11:09:52;98972.84;;;13.00;78.59
54361;BME280;40258;53.936;27.540;2022-09-24T11:12:33;98973.97;;;13.48;78.98
54361;BME280;40258;53.936;27.540;2022-09-24T11:15:27;98973.03;;;13.56;78.44
54361;BME280;40258;53.936;27.540;2022-09-24T11:18:13;98982.63;;;14.07;75.46
54361;BME280;40258;53.936;27.540;2022-09-24T11:20:53;98970.59;;;14.52;75.05
54361;BME280;40258;53.936;27.540;2022-09-24T11:23:54;98978.19;;;14.14;73.92
54361;BME280;40258;53.936;27.540;2022-09-24T11:26:37;98980.66;;;12.89;77.40
54361;BME280;40258;53.936;27.540;2022-09-24T11:29:32;98964.63;;;13.24;79.08
54361;BME280;40258;53.936;27.540;2022-09-24T11:32:09;98971.00;;;13.04;74.56
54361;BME280;40258;53.936;27.540;2022-09-24T11:35:03;98969.63;;;13.59;75.59
54361;BME280;40258;53.936;27.540;2022-09-24T11:37:53;98968.84;;;13.09;73.61
54361;BME280;40258;53.936;27.540;2022-09-24T11:40:40;98968.16;;;13.62;73.86
54361;BME280;40258;53.936;27.540;2022-09-24T11:43:34;98976.56;;;14.42;70.20
54361;BME280;40258;53.936;27.540;2022-09-24T11:46:26;98970.03;;;14.90;66.99
54361;BME280;40258;53.936;27.540;2022-09-24T11:49:27;98969.06;;;14.83;66.79
54361;BME280;40258;53.936;27.540;2022-09-24T11:52:08;98971.69;;;14.95;65.80
54361;BME280;40258;53.936;27.540;2022-09-24T11:54:45;98965.09;;;14.96;66.29
54361;BME280;40258;53.936;27.540;2022-09-24T11:57:23;98961.09;;;15.09;65.31
54361;BME280;40258;53.936;27.540;2022-09-24T11:59:59;98966.94;;;15.43;64.12
54361;BME280;40258;53.936;27.540;2022-09-24T12:02:38;98967.69;;;15.60;64.01
54361;BME280;40258;53.936;27.540;2022-09-24T12:05:14;98968.88;;;15.07;66.19
54361;BME280;40258;53.936;27.540;2022-09-24T12:07:49;98970.66;;;14.84;67.27
54361;BME280;40258;53.936;27.540;2022-09-24T12:10:30;98954.41;;;14.59;68.26
54361;BME280;40258;53.936;27.540;2022-09-24T12:13:11;98957.63;;;14.49;69.74
54361;BME280;40258;53.936;27.540;2022-09-24T12:15:53;98957.19;;;14.47;67.03
54361;BME280;40258;53.936;27.540;2022-09-24T12:18:27;98960.00;;;14.34;68.25
54361;BME280;40258;53.936;27.540;2022-09-24T12:21:01;98952.94;;;14.62;68.17
54361;BME280;40258;53.936;27.540;2022-09-24T12:23:43;98958.91;;;15.15;66.90
54361;BME280;40258;53.936;27.540;2022-09-24T12:26:16;98950.72;;;14.99;65.27
54361;BME280;40258;53.936;27.540;2022-09-24T12:28:53;98955.81;;;14.85;64.32
54361;BME280;40258;53.936;27.540;2022-09-24T12:31:53;98962.34;;;14.64;66.17
54361;BME280;40258;53.936;27.540;2022-09-24T12:34:53;98958.25;;;14.42;65.51
54361;BME280;40258;53.936;27.540;2022-09-24T12:37:29;98954.34;;;14.27;68.01
54361;BME280;40258;53.936;27.540;2022-09-24T12:40:05;98957.03;;;14.11;68.22
54361;BME280;40258;53.936;27.540;2022-09-24T12:42:46;98952.88;;;14.01;68.82
54361;BME280;40258;53.936;27.540;2022-09-24T12:45:20;98946.72;;;14.05;69.15
54361;BME280;40258;53.936;27.540;2022-09-24T12:47:53;98951.97;;;14.26;69.94
54361;BME280;40258;53.936;27.540;2022-09-24T12:50:27;98947.88;;;14.48;69.25
54361;BME280;40258;53.936;27.540;2022-09-24T12:52:57;98947.88;;;14.48;68.69
54361;BME280;40258;53.936;27.540;2022-09-24T12:55:27;98943.50;;;14.75;68.48
54361;BME280;40258;53.936;27.540;2022-09-24T12:58:00;98943.25;;;14.96;67.50
54361;BME280;40258;53.936;27.540;2022-09-24T13:00:39;98946.50;;;14.86;67.62
54361;BME280;40258;53.936;27.540;2022-09-24T13:03:30;98940.38;;;14.45;69.97
54361;BME280;40258;53.936;27.540;2022-09-24T13:06:02;98937.28;;;14.30;70.50
54361;BME280;40258;53.936;27.540;2022-09-24T13:08:37;98945.69;;;14.09;71.83
54361;BME280;40258;53.936;27.540;2022-09-24T13:11:25;98943.25;;;13.63;74.84
54361;BME280;40258;53.936;27.540;2022-09-24T13:14:18;98941.66;;;13.62;75.96
54361;BME280;40258;53.936;27.540;2022-09-24T13:16:50;98934.63;;;13.61;76.81
54361;BME280;40258;53.936;27.540;2022-09-24T13:19:35;98930.06;;;13.65;76.60
54361;BME280;40258;53.936;27.540;2022-09-24T13:22:20;98932.72;;;13.50;77.14
54361;BME280;40258;53.936;27.540;2022-09-24T13:24:52;98927.75;;;13.39;77.77
54361;BME280;40258;53.936;27.540;2022-09-24T13:27:32;98931.03;;;13.45;78.13
54361;BME280;40258;53.936;27.540;2022-09-24T13:30:15;98940.06;;;13.61;76.72